KAMW/AMW METAR and TAF weather

Enter ICAO airport designator
Station Type Date Time Source
KAMW METAR 2018/10/21 05:53 UTC NOAA

KAMW 210553Z AUTO 00000KT 10SM CLR M03/M05 A3037 RMK AO2 SLP290 T10331050 10039 21039 400891039 58005 $


Station Type Date Time Source
KAMW Decoded METAR 2018/10/21 05:53 UTC NOAA

AMES MUNICIPAL AIRPORT, IA, United States (KAMW) 41-59N 93-37W 279M
Oct 21, 2018 - 01:53 AM EDT / 2018.10.21 0553 UTC
Wind: Calm:0
Visibility: 10 mile(s):0
Sky conditions: clear
Temperature: 26.1 F (-3.3 C)
Dew Point: 23.0 F (-5.0 C)
Relative Humidity: 87%
Pressure (altimeter): 30.37 in. Hg (1028 hPa)
Pressure tendency: 0.01 inches (0.5 hPa) lower than three hours ago
ob: KAMW 210553Z AUTO 00000KT 10SM CLR M03/M05 A3037 RMK AO2 SLP290 T10331050 10039 21039 400891039 58005
cycle: 6

Station Type Date Time Source
KAMW TAF UTC NOAA

Error!


Example: see airport list